sensor_id;sensor_type;location;lat;lon;timestamp;temperature;humidity
62259;DHT22;48241;48.824;10.102;2023-01-20T00:01:39;2.70;86.50
62259;DHT22;48241;48.824;10.102;2023-01-20T00:04:07;2.50;87.40
62259;DHT22;48241;48.824;10.102;2023-01-20T00:06:34;2.70;87.20
62259;DHT22;48241;48.824;10.102;2023-01-20T00:09:02;2.80;85.30
62259;DHT22;48241;48.824;10.102;2023-01-20T00:11:28;3.00;84.10
62259;DHT22;48241;48.824;10.102;2023-01-20T00:13:55;2.90;84.10
62259;DHT22;48241;48.824;10.102;2023-01-20T00:16:21;2.80;84.40
62259;DHT22;48241;48.824;10.102;2023-01-20T00:18:47;2.80;85.10
62259;DHT22;48241;48.824;10.102;2023-01-20T00:21:14;2.90;86.00
62259;DHT22;48241;48.824;10.102;2023-01-20T00:23:43;2.80;86.30
62259;DHT22;48241;48.824;10.102;2023-01-20T00:26:18;2.90;86.50
62259;DHT22;48241;48.824;10.102;2023-01-20T00:28:44;2.90;86.30
62259;DHT22;48241;48.824;10.102;2023-01-20T00:31:22;3.10;85.90
62259;DHT22;48241;48.824;10.102;2023-01-20T00:33:49;3.00;86.40
62259;DHT22;48241;48.824;10.102;2023-01-20T00:36:17;3.00;86.60
62259;DHT22;48241;48.824;10.102;2023-01-20T00:38:43;3.00;87.10
62259;DHT22;48241;48.824;10.102;2023-01-20T00:41:09;3.00;86.60
62259;DHT22;48241;48.824;10.102;2023-01-20T00:43:35;3.10;86.60
62259;DHT22;48241;48.824;10.102;2023-01-20T00:46:02;3.10;87.00
62259;DHT22;48241;48.824;10.102;2023-01-20T00:48:28;2.90;87.40
62259;DHT22;48241;48.824;10.102;2023-01-20T00:50:53;3.00;87.60
62259;DHT22;48241;48.824;10.102;2023-01-20T00:53:19;3.00;86.70
62259;DHT22;48241;48.824;10.102;2023-01-20T00:55:45;3.10;86.20
62259;DHT22;48241;48.824;10.102;2023-01-20T00:58:10;3.10;86.10
62259;DHT22;48241;48.824;10.102;2023-01-20T01:00:36;3.00;86.20
62259;DHT22;48241;48.824;10.102;2023-01-20T01:03:02;3.10;86.60
62259;DHT22;48241;48.824;10.102;2023-01-20T01:05:28;3.20;86.40
62259;DHT22;48241;48.824;10.102;2023-01-20T01:07:53;3.30;86.10
62259;DHT22;48241;48.824;10.102;2023-01-20T01:10:19;3.00;86.80
62259;DHT22;48241;48.824;10.102;2023-01-20T01:12:44;3.10;86.70
62259;DHT22;48241;48.824;10.102;2023-01-20T01:15:11;3.20;86.00
62259;DHT22;48241;48.824;10.102;2023-01-20T01:17:36;3.30;84.60
62259;DHT22;48241;48.824;10.102;2023-01-20T01:20:02;3.30;84.90
62259;DHT22;48241;48.824;10.102;2023-01-20T01:22:31;3.10;86.80
62259;DHT22;48241;48.824;10.102;2023-01-20T01:24:57;3.20;86.80
62259;DHT22;48241;48.824;10.102;2023-01-20T01:27:23;3.10;87.50
62259;DHT22;48241;48.824;10.102;2023-01-20T01:29:48;3.10;87.20
62259;DHT22;48241;48.824;10.102;2023-01-20T01:32:14;3.10;88.70
62259;DHT22;48241;48.824;10.102;2023-01-20T01:34:39;2.90;88.60
62259;DHT22;48241;48.824;10.102;2023-01-20T01:37:05;2.70;89.80
62259;DHT22;48241;48.824;10.102;2023-01-20T01:39:31;3.00;88.50
62259;DHT22;48241;48.824;10.102;2023-01-20T01:41:56;3.20;88.20
62259;DHT22;48241;48.824;10.102;2023-01-20T01:44:25;3.30;88.40
62259;DHT22;48241;48.824;10.102;2023-01-20T01:46:52;3.20;88.50
62259;DHT22;48241;48.824;10.102;2023-01-20T01:49:28;3.30;88.30
62259;DHT22;48241;48.824;10.102;2023-01-20T01:52:01;3.30;88.30
62259;DHT22;48241;48.824;10.102;2023-01-20T01:54:35;3.20;88.80
62259;DHT22;48241;48.824;10.102;2023-01-20T01:57:01;3.20;88.80
62259;DHT22;48241;48.824;10.102;2023-01-20T01:59:28;3.20;89.00
62259;DHT22;48241;48.824;10.102;2023-01-20T02:01:54;3.20;87.90
62259;DHT22;48241;48.824;10.102;2023-01-20T02:04:22;3.10;88.50
62259;DHT22;48241;48.824;10.102;2023-01-20T02:06:51;3.00;89.80
62259;DHT22;48241;48.824;10.102;2023-01-20T02:09:17;3.10;89.80
62259;DHT22;48241;48.824;10.102;2023-01-20T02:11:49;3.20;89.50
62259;DHT22;48241;48.824;10.102;2023-01-20T02:14:22;3.20;89.60
62259;DHT22;48241;48.824;10.102;2023-01-20T02:17:08;3.10;90.10
62259;DHT22;48241;48.824;10.102;2023-01-20T02:31:21;3.10;89.50
62259;DHT22;48241;48.824;10.102;2023-01-20T02:36:40;3.00;90.40
62259;DHT22;48241;48.824;10.102;2023-01-20T02:39:26;3.10;89.80
62259;DHT22;48241;48.824;10.102;2023-01-20T02:42:07;3.00;90.10
62259;DHT22;48241;48.824;10.102;2023-01-20T02:44:58;3.10;89.90
62259;DHT22;48241;48.824;10.102;2023-01-20T02:47:48;3.20;89.10
62259;DHT22;48241;48.824;10.102;2023-01-20T02:50:23;3.20;88.90
62259;DHT22;48241;48.824;10.102;2023-01-20T02:52:56;3.20;88.80
62259;DHT22;48241;48.824;10.102;2023-01-20T02:58:07;3.20;89.20
62259;DHT22;48241;48.824;10.102;2023-01-20T03:00:52;3.10;89.80
62259;DHT22;48241;48.824;10.102;2023-01-20T03:03:24;3.20;89.40
62259;DHT22;48241;48.824;10.102;2023-01-20T03:05:54;3.10;89.90
62259;DHT22;48241;48.824;10.102;2023-01-20T03:08:22;3.10;90.10
62259;DHT22;48241;48.824;10.102;2023-01-20T03:10:49;3.20;89.80
62259;DHT22;48241;48.824;10.102;2023-01-20T03:13:25;3.00;90.10
62259;DHT22;48241;48.824;10.102;2023-01-20T03:16:05;3.00;90.50
62259;DHT22;48241;48.824;10.102;2023-01-20T03:18:32;3.00;90.10
62259;DHT22;48241;48.824;10.102;2023-01-20T03:21:00;3.10;90.20
62259;DHT22;48241;48.824;10.102;2023-01-20T03:23:31;3.20;89.50
62259;DHT22;48241;48.824;10.102;2023-01-20T03:25:57;3.10;89.80
62259;DHT22;48241;48.824;10.102;2023-01-20T03:28:23;3.30;89.30
62259;DHT22;48241;48.824;10.102;2023-01-20T03:30:49;3.30;88.70
62259;DHT22;48241;48.824;10.102;2023-01-20T03:33:16;3.30;88.70
62259;DHT22;48241;48.824;10.102;2023-01-20T03:35:42;3.30;88.80
62259;DHT22;48241;48.824;10.102;2023-01-20T03:38:08;3.30;88.60
62259;DHT22;48241;48.824;10.102;2023-01-20T03:43:35;3.20;88.90
62259;DHT22;48241;48.824;10.102;2023-01-20T03:46:16;3.20;89.10
62259;DHT22;48241;48.824;10.102;2023-01-20T03:48:56;3.00;89.80
62259;DHT22;48241;48.824;10.102;2023-01-20T03:51:42;3.00;89.80
62259;DHT22;48241;48.824;10.102;2023-01-20T03:54:17;3.00;89.80
62259;DHT22;48241;48.824;10.102;2023-01-20T03:56:57;2.90;90.00
62259;DHT22;48241;48.824;10.102;2023-01-20T03:59:31;2.80;90.00
62259;DHT22;48241;48.824;10.102;2023-01-20T04:02:04;3.00;89.80
62259;DHT22;48241;48.824;10.102;2023-01-20T04:04:33;3.00;90.00
62259;DHT22;48241;48.824;10.102;2023-01-20T04:07:04;3.00;90.00
62259;DHT22;48241;48.824;10.102;2023-01-20T04:09:33;2.80;90.10
62259;DHT22;48241;48.824;10.102;2023-01-20T04:11:59;2.60;90.90
62259;DHT22;48241;48.824;10.102;2023-01-20T04:14:25;2.80;90.40
62259;DHT22;48241;48.824;10.102;2023-01-20T04:16:53;2.80;90.50
62259;DHT22;48241;48.824;10.102;2023-01-20T04:19:20;2.70;90.60
62259;DHT22;48241;48.824;10.102;2023-01-20T04:22:05;2.70;90.30
62259;DHT22;48241;48.824;10.102;2023-01-20T04:24:56;2.90;90.10
62259;DHT22;48241;48.824;10.102;2023-01-20T04:27:25;2.90;90.10
62259;DHT22;48241;48.824;10.102;2023-01-20T04:29:51;2.70;90.50
62259;DHT22;48241;48.824;10.102;2023-01-20T04:32:16;2.70;90.10
62259;DHT22;48241;48.824;10.102;2023-01-20T04:34:42;2.70;90.50
62259;DHT22;48241;48.824;10.102;2023-01-20T04:37:07;2.70;90.50
62259;DHT22;48241;48.824;10.102;2023-01-20T04:39:33;2.70;90.20
62259;DHT22;48241;48.824;10.102;2023-01-20T04:41:59;2.70;90.70
62259;DHT22;48241;48.824;10.102;2023-01-20T04:44:24;2.70;90.60
62259;DHT22;48241;48.824;10.102;2023-01-20T04:46:50;2.60;90.80
62259;DHT22;48241;48.824;10.102;2023-01-20T04:49:20;2.60;90.50
62259;DHT22;48241;48.824;10.102;2023-01-20T04:51:45;2.40;91.00
62259;DHT22;48241;48.824;10.102;2023-01-20T04:54:11;2.30;91.40
62259;DHT22;48241;48.824;10.102;2023-01-20T04:56:36;2.40;91.60
62259;DHT22;48241;48.824;10.102;2023-01-20T04:59:02;2.40;91.60
62259;DHT22;48241;48.824;10.102;2023-01-20T05:01:27;2.20;91.90
62259;DHT22;48241;48.824;10.102;2023-01-20T05:03:53;2.40;91.60
62259;DHT22;48241;48.824;10.102;2023-01-20T05:06:18;2.50;91.30
62259;DHT22;48241;48.824;10.102;2023-01-20T05:08:44;2.50;91.50
62259;DHT22;48241;48.824;10.102;2023-01-20T05:11:09;2.30;91.80
62259;DHT22;48241;48.824;10.102;2023-01-20T05:13:35;2.50;91.50
62259;DHT22;48241;48.824;10.102;2023-01-20T05:16:07;2.80;91.50
62259;DHT22;48241;48.824;10.102;2023-01-20T05:18:33;2.70;91.30
62259;DHT22;48241;48.824;10.102;2023-01-20T05:20:59;2.60;91.40
62259;DHT22;48241;48.824;10.102;2023-01-20T05:23:25;2.70;91.20
62259;DHT22;48241;48.824;10.102;2023-01-20T05:25:51;2.60;91.50
62259;DHT22;48241;48.824;10.102;2023-01-20T05:28:18;2.80;91.00
62259;DHT22;48241;48.824;10.102;2023-01-20T05:30:44;2.90;91.00
62259;DHT22;48241;48.824;10.102;2023-01-20T05:33:10;2.70;91.00
62259;DHT22;48241;48.824;10.102;2023-01-20T05:35:39;2.80;91.50
62259;DHT22;48241;48.824;10.102;2023-01-20T05:38:05;2.90;91.40
62259;DHT22;48241;48.824;10.102;2023-01-20T05:40:31;2.80;91.10
62259;DHT22;48241;48.824;10.102;2023-01-20T05:43:00;3.10;91.10
62259;DHT22;48241;48.824;10.102;2023-01-20T05:45:26;3.30;91.20
62259;DHT22;48241;48.824;10.102;2023-01-20T05:47:56;2.80;91.00
62259;DHT22;48241;48.824;10.102;2023-01-20T05:50:23;2.90;91.30
62259;DHT22;48241;48.824;10.102;2023-01-20T05:52:49;2.80;91.20
62259;DHT22;48241;48.824;10.102;2023-01-20T05:55:14;2.90;91.20
62259;DHT22;48241;48.824;10.102;2023-01-20T05:57:40;2.80;91.20
62259;DHT22;48241;48.824;10.102;2023-01-20T06:00:06;2.80;91.80
62259;DHT22;48241;48.824;10.102;2023-01-20T06:02:32;2.70;91.90
62259;DHT22;48241;48.824;10.102;2023-01-20T06:04:57;2.80;91.70
62259;DHT22;48241;48.824;10.102;2023-01-20T06:07:29;2.80;91.50
62259;DHT22;48241;48.824;10.102;2023-01-20T06:09:55;2.90;91.90
62259;DHT22;48241;48.824;10.102;2023-01-20T06:12:21;2.80;91.30
62259;DHT22;48241;48.824;10.102;2023-01-20T06:14:47;2.70;91.90
62259;DHT22;48241;48.824;10.102;2023-01-20T06:17:13;2.80;92.00
62259;DHT22;48241;48.824;10.102;2023-01-20T06:19:39;2.90;91.70
62259;DHT22;48241;48.824;10.102;2023-01-20T06:22:06;2.90;91.70
62259;DHT22;48241;48.824;10.102;2023-01-20T06:24:32;3.10;91.20
62259;DHT22;48241;48.824;10.102;2023-01-20T06:26:58;3.10;91.10
62259;DHT22;48241;48.824;10.102;2023-01-20T06:29:23;3.00;91.20
62259;DHT22;48241;48.824;10.102;2023-01-20T06:31:49;3.00;91.40
62259;DHT22;48241;48.824;10.102;2023-01-20T06:34:15;3.00;91.40
62259;DHT22;48241;48.824;10.102;2023-01-20T06:36:43;3.00;91.30
62259;DHT22;48241;48.824;10.102;2023-01-20T06:39:12;3.00;91.30
62259;DHT22;48241;48.824;10.102;2023-01-20T06:41:38;3.10;91.20
62259;DHT22;48241;48.824;10.102;2023-01-20T06:44:04;2.80;91.60
62259;DHT22;48241;48.824;10.102;2023-01-20T06:46:30;3.10;91.30
62259;DHT22;48241;48.824;10.102;2023-01-20T06:48:55;3.20;91.00
62259;DHT22;48241;48.824;10.102;2023-01-20T06:51:26;3.20;90.90
62259;DHT22;48241;48.824;10.102;2023-01-20T06:53:53;3.20;91.00
62259;DHT22;48241;48.824;10.102;2023-01-20T06:56:18;3.20;90.90
62259;DHT22;48241;48.824;10.102;2023-01-20T06:58:44;3.30;90.80
62259;DHT22;48241;48.824;10.102;2023-01-20T07:01:16;3.30;91.00
62259;DHT22;48241;48.824;10.102;2023-01-20T07:03:43;3.30;91.00
62259;DHT22;48241;48.824;10.102;2023-01-20T07:06:31;3.20;90.80
62259;DHT22;48241;48.824;10.102;2023-01-20T07:08:58;3.30;90.80
62259;DHT22;48241;48.824;10.102;2023-01-20T07:11:23;3.30;91.00
62259;DHT22;48241;48.824;10.102;2023-01-20T07:13:49;3.20;90.80
62259;DHT22;48241;48.824;10.102;2023-01-20T07:16:15;3.20;90.90
62259;DHT22;48241;48.824;10.102;2023-01-20T07:18:41;3.20;90.90
62259;DHT22;48241;48.824;10.102;2023-01-20T07:21:09;3.20;91.00
62259;DHT22;48241;48.824;10.102;2023-01-20T07:23:34;3.10;91.30
62259;DHT22;48241;48.824;10.102;2023-01-20T07:26:02;3.10;91.20
62259;DHT22;48241;48.824;10.102;2023-01-20T07:28:30;3.20;91.20
62259;DHT22;48241;48.824;10.102;2023-01-20T07:31:23;3.30;91.00
62259;DHT22;48241;48.824;10.102;2023-01-20T07:33:47;3.30;90.90
62259;DHT22;48241;48.824;10.102;2023-01-20T07:36:14;3.20;90.90
62259;DHT22;48241;48.824;10.102;2023-01-20T07:38:40;3.30;90.90
62259;DHT22;48241;48.824;10.102;2023-01-20T07:41:08;3.30;90.80
62259;DHT22;48241;48.824;10.102;2023-01-20T07:43:47;3.40;90.80
62259;DHT22;48241;48.824;10.102;2023-01-20T07:46:13;3.30;90.90
62259;DHT22;48241;48.824;10.102;2023-01-20T07:48:39;3.10;91.20
62259;DHT22;48241;48.824;10.102;2023-01-20T07:51:07;3.20;90.90
62259;DHT22;48241;48.824;10.102;2023-01-20T07:53:36;3.10;91.30
62259;DHT22;48241;48.824;10.102;2023-01-20T07:56:09;3.20;91.10
62259;DHT22;48241;48.824;10.102;2023-01-20T07:58:35;3.00;91.40
62259;DHT22;48241;48.824;10.102;2023-01-20T08:01:14;3.30;91.10
62259;DHT22;48241;48.824;10.102;2023-01-20T08:03:39;3.20;91.30
62259;DHT22;48241;48.824;10.102;2023-01-20T08:06:08;3.50;90.80
62259;DHT22;48241;48.824;10.102;2023-01-20T08:08:34;3.70;90.60
62259;DHT22;48241;48.824;10.102;2023-01-20T08:11:01;3.70;90.30
62259;DHT22;48241;48.824;10.102;2023-01-20T08:13:27;3.90;90.00
62259;DHT22;48241;48.824;10.102;2023-01-20T08:15:54;4.00;89.40
62259;DHT22;48241;48.824;10.102;2023-01-20T08:18:19;4.10;89.10
62259;DHT22;48241;48.824;10.102;2023-01-20T08:20:45;4.20;88.60
62259;DHT22;48241;48.824;10.102;2023-01-20T08:23:10;4.30;88.00
62259;DHT22;48241;48.824;10.102;2023-01-20T08:25:36;4.30;88.20
62259;DHT22;48241;48.824;10.102;2023-01-20T08:28:02;4.30;87.40
62259;DHT22;48241;48.824;10.102;2023-01-20T08:30:27;4.30;87.80
62259;DHT22;48241;48.824;10.102;2023-01-20T08:32:53;4.30;87.70
62259;DHT22;48241;48.824;10.102;2023-01-20T08:35:19;4.30;87.60
62259;DHT22;48241;48.824;10.102;2023-01-20T08:37:44;4.20;87.60
62259;DHT22;48241;48.824;10.102;2023-01-20T08:40:19;4.20;87.90
62259;DHT22;48241;48.824;10.102;2023-01-20T08:42:44;4.00;88.90
62259;DHT22;48241;48.824;10.102;2023-01-20T08:45:10;4.00;88.60
62259;DHT22;48241;48.824;10.102;2023-01-20T08:47:40;4.10;88.30
62259;DHT22;48241;48.824;10.102;2023-01-20T08:50:11;4.10;87.70
62259;DHT22;48241;48.824;10.102;2023-01-20T08:52:37;4.10;87.50
62259;DHT22;48241;48.824;10.102;2023-01-20T08:55:04;4.00;87.60
62259;DHT22;48241;48.824;10.102;2023-01-20T08:57:29;4.00;88.20
62259;DHT22;48241;48.824;10.102;2023-01-20T08:59:55;4.00;88.20
62259;DHT22;48241;48.824;10.102;2023-01-20T09:02:21;4.00;88.70
62259;DHT22;48241;48.824;10.102;2023-01-20T09:04:50;3.90;88.40
62259;DHT22;48241;48.824;10.102;2023-01-20T09:07:17;4.10;87.40
62259;DHT22;48241;48.824;10.102;2023-01-20T09:09:43;4.20;87.80
62259;DHT22;48241;48.824;10.102;2023-01-20T09:12:08;4.20;87.00
62259;DHT22;48241;48.824;10.102;2023-01-20T09:14:34;4.10;87.60
62259;DHT22;48241;48.824;10.102;2023-01-20T09:17:00;4.10;87.30
62259;DHT22;48241;48.824;10.102;2023-01-20T09:19:27;4.10;87.80
62259;DHT22;48241;48.824;10.102;2023-01-20T09:21:53;3.90;87.80
62259;DHT22;48241;48.824;10.102;2023-01-20T09:24:19;3.90;88.00
62259;DHT22;48241;48.824;10.102;2023-01-20T09:26:47;3.80;88.50
62259;DHT22;48241;48.824;10.102;2023-01-20T09:29:15;3.80;89.40
62259;DHT22;48241;48.824;10.102;2023-01-20T09:31:44;3.80;90.00
62259;DHT22;48241;48.824;10.102;2023-01-20T09:34:12;3.90;88.80
62259;DHT22;48241;48.824;10.102;2023-01-20T09:36:43;3.80;89.70
62259;DHT22;48241;48.824;10.102;2023-01-20T09:39:12;3.80;88.60
62259;DHT22;48241;48.824;10.102;2023-01-20T09:41:59;3.90;88.90
62259;DHT22;48241;48.824;10.102;2023-01-20T09:45:04;3.90;88.70
62259;DHT22;48241;48.824;10.102;2023-01-20T09:47:44;3.80;88.70
62259;DHT22;48241;48.824;10.102;2023-01-20T09:50:17;3.70;89.30
62259;DHT22;48241;48.824;10.102;2023-01-20T09:55:53;3.70;90.20
62259;DHT22;48241;48.824;10.102;2023-01-20T10:12:10;4.90;85.90
62259;DHT22;48241;48.824;10.102;2023-01-20T10:14:51;5.00;85.40
62259;DHT22;48241;48.824;10.102;2023-01-20T10:17:46;4.90;85.40
62259;DHT22;48241;48.824;10.102;2023-01-20T10:25:38;5.20;83.60
62259;DHT22;48241;48.824;10.102;2023-01-20T10:28:15;5.20;83.20
62259;DHT22;48241;48.824;10.102;2023-01-20T10:30:43;4.90;85.10
62259;DHT22;48241;48.824;10.102;2023-01-20T10:35:43;4.70;85.80
62259;DHT22;48241;48.824;10.102;2023-01-20T10:41:36;4.80;85.40
62259;DHT22;48241;48.824;10.102;2023-01-20T10:44:12;4.80;85.20
62259;DHT22;48241;48.824;10.102;2023-01-20T10:57:23;5.30;83.20
62259;DHT22;48241;48.824;10.102;2023-01-20T10:59:53;5.40;83.10
62259;DHT22;48241;48.824;10.102;2023-01-20T11:02:34;5.40;82.00
62259;DHT22;48241;48.824;10.102;2023-01-20T11:05:16;5.70;80.30
62259;DHT22;48241;48.824;10.102;2023-01-20T11:07:43;5.80;79.50
62259;DHT22;48241;48.824;10.102;2023-01-20T11:12:41;5.90;79.60
62259;DHT22;48241;48.824;10.102;2023-01-20T11:15:20;6.10;79.30
62259;DHT22;48241;48.824;10.102;2023-01-20T11:28:46;5.60;79.80
62259;DHT22;48241;48.824;10.102;2023-01-20T11:31:13;5.70;80.20
62259;DHT22;48241;48.824;10.102;2023-01-20T11:33:39;5.60;79.90
62259;DHT22;48241;48.824;10.102;2023-01-20T11:36:15;5.90;79.70
62259;DHT22;48241;48.824;10.102;2023-01-20T11:38:47;5.80;79.00
62259;DHT22;48241;48.824;10.102;2023-01-20T11:41:25;6.20;78.10
62259;DHT22;48241;48.824;10.102;2023-01-20T11:43:54;6.50;77.90
62259;DHT22;48241;48.824;10.102;2023-01-20T11:46:24;6.60;75.20
62259;DHT22;48241;48.824;10.102;2023-01-20T11:49:10;6.70;76.00
62259;DHT22;48241;48.824;10.102;2023-01-20T11:51:47;6.70;75.20
62259;DHT22;48241;48.824;10.102;2023-01-20T11:54:27;6.30;75.00
62259;DHT22;48241;48.824;10.102;2023-01-20T11:57:01;6.30;76.00
62259;DHT22;48241;48.824;10.102;2023-01-20T11:59:35;6.30;75.70
62259;DHT22;48241;48.824;10.102;2023-01-20T12:07:33;6.30;75.30
62259;DHT22;48241;48.824;10.102;2023-01-20T12:10:05;6.20;76.00
62259;DHT22;48241;48.824;10.102;2023-01-20T12:12:44;6.20;76.40
62259;DHT22;48241;48.824;10.102;2023-01-20T12:15:24;5.90;76.20
62259;DHT22;48241;48.824;10.102;2023-01-20T12:20:55;5.90;76.90
62259;DHT22;48241;48.824;10.102;2023-01-20T12:24:37;5.90;76.60
62259;DHT22;48241;48.824;10.102;2023-01-20T12:26:27;5.90;77.60
62259;DHT22;48241;48.824;10.102;2023-01-20T12:31:24;6.00;75.50
62259;DHT22;48241;48.824;10.102;2023-01-20T12:34:12;5.90;75.60
62259;DHT22;48241;48.824;10.102;2023-01-20T12:42:33;5.20;78.40
62259;DHT22;48241;48.824;10.102;2023-01-20T12:48:17;5.00;78.40
62259;DHT22;48241;48.824;10.102;2023-01-20T13:02:32;4.90;77.80
62259;DHT22;48241;48.824;10.102;2023-01-20T13:05:20;4.90;78.10
62259;DHT22;48241;48.824;10.102;2023-01-20T13:13:56;5.10;77.90
62259;DHT22;48241;48.824;10.102;2023-01-20T13:16:47;5.30;76.80
62259;DHT22;48241;48.824;10.102;2023-01-20T13:19:36;5.50;74.80
62259;DHT22;48241;48.824;10.102;2023-01-20T13:22:13;5.50;75.20
62259;DHT22;48241;48.824;10.102;2023-01-20T13:24:42;5.30;75.60
62259;DHT22;48241;48.824;10.102;2023-01-20T13:27:09;5.50;75.30
62259;DHT22;48241;48.824;10.102;2023-01-20T13:32:03;5.30;75.30
62259;DHT22;48241;48.824;10.102;2023-01-20T13:34:31;5.60;74.00
62259;DHT22;48241;48.824;10.102;2023-01-20T13:45:20;5.60;72.70
62259;DHT22;48241;48.824;10.102;2023-01-20T17:31:11;-0.80;90.70
62259;DHT22;48241;48.824;10.102;2023-01-20T17:33:38;-1.00;91.10
62259;DHT22;48241;48.824;10.102;2023-01-20T17:36:11;-0.90;91.60
62259;DHT22;48241;48.824;10.102;2023-01-20T17:47:03;-0.80;90.90
62259;DHT22;48241;48.824;10.102;2023-01-20T17:49:32;-0.90;91.10
62259;DHT22;48241;48.824;10.102;2023-01-20T17:51:58;-1.00;91.20
62259;DHT22;48241;48.824;10.102;2023-01-20T17:54:24;-1.00;91.50
62259;DHT22;48241;48.824;10.102;2023-01-20T17:56:50;-1.00;91.40
62259;DHT22;48241;48.824;10.102;2023-01-20T17:59:22;-1.00;91.70
62259;DHT22;48241;48.824;10.102;2023-01-20T18:01:51;-1.20;92.30
62259;DHT22;48241;48.824;10.102;2023-01-20T18:04:18;-1.10;92.40
62259;DHT22;48241;48.824;10.102;2023-01-20T18:10:29;-1.00;91.90
62259;DHT22;48241;48.824;10.102;2023-01-20T18:12:55;-1.00;92.00
62259;DHT22;48241;48.824;10.102;2023-01-20T18:15:20;-1.10;92.00
62259;DHT22;48241;48.824;10.102;2023-01-20T18:21:13;-1.10;92.10
62259;DHT22;48241;48.824;10.102;2023-01-20T18:23:41;-1.10;91.90
62259;DHT22;48241;48.824;10.102;2023-01-20T18:32:55;-1.50;92.20
62259;DHT22;48241;48.824;10.102;2023-01-20T18:35:41;-1.50;92.00
62259;DHT22;48241;48.824;10.102;2023-01-20T18:38:25;-1.70;92.30
62259;DHT22;48241;48.824;10.102;2023-01-20T18:40:50;-1.50;93.10
62259;DHT22;48241;48.824;10.102;2023-01-20T18:43:16;-1.40;92.70
62259;DHT22;48241;48.824;10.102;2023-01-20T18:45:42;-1.50;91.80
62259;DHT22;48241;48.824;10.102;2023-01-20T18:48:08;-1.40;92.70
62259;DHT22;48241;48.824;10.102;2023-01-20T18:50:58;-1.40;92.60
62259;DHT22;48241;48.824;10.102;2023-01-20T18:54:23;-1.40;92.60
62259;DHT22;48241;48.824;10.102;2023-01-20T18:57:07;-1.30;92.30
62259;DHT22;48241;48.824;10.102;2023-01-20T18:59:32;-1.30;92.20
62259;DHT22;48241;48.824;10.102;2023-01-20T19:01:58;-1.20;91.70
62259;DHT22;48241;48.824;10.102;2023-01-20T19:04:24;-1.30;92.00
62259;DHT22;48241;48.824;10.102;2023-01-20T19:06:53;-1.20;92.20
62259;DHT22;48241;48.824;10.102;2023-01-20T19:09:50;-1.70;92.20
62259;DHT22;48241;48.824;10.102;2023-01-20T19:12:16;-1.80;92.70
62259;DHT22;48241;48.824;10.102;2023-01-20T19:14:42;-1.80;92.50
62259;DHT22;48241;48.824;10.102;2023-01-20T19:17:25;-1.60;92.40
62259;DHT22;48241;48.824;10.102;2023-01-20T19:20:33;-1.60;92.90
62259;DHT22;48241;48.824;10.102;2023-01-20T19:22:58;-1.60;92.80
62259;DHT22;48241;48.824;10.102;2023-01-20T19:25:24;-1.80;91.90
62259;DHT22;48241;48.824;10.102;2023-01-20T19:28:19;-1.90;92.40
62259;DHT22;48241;48.824;10.102;2023-01-20T19:30:45;-2.40;93.10
62259;DHT22;48241;48.824;10.102;2023-01-20T19:33:11;-2.30;93.10
62259;DHT22;48241;48.824;10.102;2023-01-20T19:35:37;-2.20;93.10
62259;DHT22;48241;48.824;10.102;2023-01-20T19:38:03;-2.20;93.30
62259;DHT22;48241;48.824;10.102;2023-01-20T19:50:45;-1.60;92.50
62259;DHT22;48241;48.824;10.102;2023-01-20T19:53:11;-1.40;92.60
62259;DHT22;48241;48.824;10.102;2023-01-20T19:55:37;-1.50;92.20
62259;DHT22;48241;48.824;10.102;2023-01-20T19:58:02;-1.70;92.30
62259;DHT22;48241;48.824;10.102;2023-01-20T20:00:30;-1.60;92.00
62259;DHT22;48241;48.824;10.102;2023-01-20T20:02:56;-1.70;91.70
62259;DHT22;48241;48.824;10.102;2023-01-20T20:05:21;-1.50;91.40
62259;DHT22;48241;48.824;10.102;2023-01-20T20:07:47;-1.80;91.60
62259;DHT22;48241;48.824;10.102;2023-01-20T20:10:16;-1.60;91.70
62259;DHT22;48241;48.824;10.102;2023-01-20T20:12:41;-1.90;91.60
62259;DHT22;48241;48.824;10.102;2023-01-20T20:15:07;-1.90;91.70
62259;DHT22;48241;48.824;10.102;2023-01-20T20:17:34;-1.90;91.70
62259;DHT22;48241;48.824;10.102;2023-01-20T20:19:59;-1.90;92.00
62259;DHT22;48241;48.824;10.102;2023-01-20T20:22:27;-1.90;91.80
62259;DHT22;48241;48.824;10.102;2023-01-20T20:24:53;-1.90;92.20
62259;DHT22;48241;48.824;10.102;2023-01-20T20:27:25;-1.70;92.00
62259;DHT22;48241;48.824;10.102;2023-01-20T20:29:50;-1.80;91.70
62259;DHT22;48241;48.824;10.102;2023-01-20T20:32:36;-1.80;91.30
62259;DHT22;48241;48.824;10.102;2023-01-20T20:35:34;-1.70;91.40
62259;DHT22;48241;48.824;10.102;2023-01-20T20:38:00;-1.70;91.00
62259;DHT22;48241;48.824;10.102;2023-01-20T20:40:25;-1.90;91.20
62259;DHT22;48241;48.824;10.102;2023-01-20T20:46:02;-1.90;90.70
62259;DHT22;48241;48.824;10.102;2023-01-20T20:48:29;-1.80;90.20
62259;DHT22;48241;48.824;10.102;2023-01-20T20:50:55;-1.90;90.10
62259;DHT22;48241;48.824;10.102;2023-01-20T20:53:21;-2.00;91.30
62259;DHT22;48241;48.824;10.102;2023-01-20T20:55:53;-2.00;91.60
62259;DHT22;48241;48.824;10.102;2023-01-20T20:58:24;-1.90;91.60
62259;DHT22;48241;48.824;10.102;2023-01-20T21:00:52;-1.90;91.50
62259;DHT22;48241;48.824;10.102;2023-01-20T21:06:52;-1.80;91.10
62259;DHT22;48241;48.824;10.102;2023-01-20T21:12:34;-1.80;92.00
62259;DHT22;48241;48.824;10.102;2023-01-20T21:15:00;-1.90;91.70
62259;DHT22;48241;48.824;10.102;2023-01-20T21:17:26;-1.70;91.80
62259;DHT22;48241;48.824;10.102;2023-01-20T21:20:28;-1.70;91.20
62259;DHT22;48241;48.824;10.102;2023-01-20T21:22:57;-1.90;91.10
62259;DHT22;48241;48.824;10.102;2023-01-20T21:25:23;-1.70;91.00
62259;DHT22;48241;48.824;10.102;2023-01-20T21:27:49;-1.80;91.10
62259;DHT22;48241;48.824;10.102;2023-01-20T21:30:47;-1.80;91.40
62259;DHT22;48241;48.824;10.102;2023-01-20T21:33:13;-1.80;91.40
62259;DHT22;48241;48.824;10.102;2023-01-20T21:36:06;-1.70;91.10
62259;DHT22;48241;48.824;10.102;2023-01-20T21:39:25;-1.60;91.20
62259;DHT22;48241;48.824;10.102;2023-01-20T21:41:51;-1.80;91.60
62259;DHT22;48241;48.824;10.102;2023-01-20T21:44:26;-1.90;91.10
62259;DHT22;48241;48.824;10.102;2023-01-20T21:57:07;-2.10;91.60
62259;DHT22;48241;48.824;10.102;2023-01-20T21:59:33;-2.00;91.20
62259;DHT22;48241;48.824;10.102;2023-01-20T22:02:01;-2.00;90.90
62259;DHT22;48241;48.824;10.102;2023-01-20T22:04:27;-1.90;91.00
62259;DHT22;48241;48.824;10.102;2023-01-20T22:06:52;-2.10;90.80
62259;DHT22;48241;48.824;10.102;2023-01-20T22:09:18;-2.00;90.90
62259;DHT22;48241;48.824;10.102;2023-01-20T22:11:43;-2.10;91.00
62259;DHT22;48241;48.824;10.102;2023-01-20T22:14:09;-2.10;91.40
62259;DHT22;48241;48.824;10.102;2023-01-20T22:16:35;-2.00;91.40
62259;DHT22;48241;48.824;10.102;2023-01-20T22:19:00;-2.40;90.70
62259;DHT22;48241;48.824;10.102;2023-01-20T22:21:31;-2.30;90.90
62259;DHT22;48241;48.824;10.102;2023-01-20T22:23:57;-2.20;90.80